createdAt,value
2018-10-01T00:00:10.852Z,95266.67
2018-10-01T00:02:36.320Z,95258.59
2018-10-01T00:05:01.792Z,95248.03
2018-10-01T00:07:27.287Z,95251.33
2018-10-01T00:09:52.785Z,95250.52
2018-10-01T00:12:18.277Z,95243.51
2018-10-01T00:14:43.748Z,95244.32
2018-10-01T00:17:09.247Z,95238.02
2018-10-01T00:19:34.781Z,95238.42
2018-10-01T00:22:00.286Z,95234.66
2018-10-01T00:24:25.753Z,95230.54
2018-10-01T00:26:51.224Z,95230.54
2018-10-01T00:29:16.694Z,95223.27
2018-10-01T00:31:42.183Z,95218.75
2018-10-01T00:34:07.678Z,95215.05
2018-10-01T00:36:33.149Z,95212.86
2018-10-01T00:38:58.644Z,95214.64
2018-10-01T00:41:24.120Z,95207.22
2018-10-01T00:43:49.637Z,95207.56
2018-10-01T00:46:15.113Z,95206.56
2018-10-01T00:48:40.582Z,95203.05
2018-10-01T00:51:06.083Z,95196.00
2018-10-01T00:53:31.548Z,95198.34
2018-10-01T00:55:57.025Z,95200.11
2018-10-01T00:58:22.520Z,95196.97
2018-10-01T01:00:47.987Z,95191.73
2018-10-01T01:03:13.483Z,95189.80
2018-10-01T01:05:38.985Z,95189.80
2018-10-01T01:08:04.474Z,95188.80
2018-10-01T01:10:29.975Z,95182.28
2018-10-01T01:12:55.439Z,95183.25
2018-10-01T01:15:20.987Z,95172.88
2018-10-01T01:17:46.497Z,95176.98
2018-10-01T01:20:11.993Z,95167.38
2018-10-01T01:22:37.495Z,95169.32
2018-10-01T01:25:02.991Z,95160.53
2018-10-01T01:27:28.478Z,95156.97
2018-10-01T01:29:53.945Z,95159.88
2018-10-01T01:32:19.420Z,95154.80
2018-10-01T01:34:44.896Z,95149.50
2018-10-01T01:37:10.399Z,95147.13
2018-10-01T01:39:35.890Z,95144.78
2018-10-01T01:42:01.364Z,95149.50
2018-10-01T01:44:26.861Z,95152.86
2018-10-01T01:46:52.329Z,95144.38
2018-10-01T01:49:17.824Z,95142.45
2018-10-01T01:51:43.322Z,95134.78
2018-10-01T01:54:08.822Z,95139.48
2018-10-01T01:56:34.321Z,95134.97
2018-10-01T01:58:59.784Z,95133.59
2018-10-01T02:01:25.255Z,95130.05
2018-10-01T02:03:50.745Z,95128.67
2018-10-01T02:06:16.247Z,95122.78
2018-10-01T02:08:41.782Z,95125.77
2018-10-01T02:11:07.279Z,95124.96
2018-10-01T02:13:32.765Z,95129.08
2018-10-01T02:15:58.245Z,95123.19
2018-10-01T02:18:23.743Z,95124.16
2018-10-01T02:20:49.217Z,95120.45
2018-10-01T02:23:14.717Z,95119.08
2018-10-01T02:25:40.215Z,95116.73
2018-10-01T02:28:05.713Z,95116.33
2018-10-01T02:30:31.181Z,95111.81
2018-10-01T02:32:56.652Z,95112.97
2018-10-01T02:35:22.130Z,95110.44
2018-10-01T02:37:47.629Z,95101.80
2018-10-01T02:40:13.125Z,95107.30
2018-10-01T02:42:38.597Z,95106.11
2018-10-01T02:45:04.096Z,95103.77
2018-10-01T02:47:29.603Z,95097.88
2018-10-01T02:49:55.101Z,95096.51
2018-10-01T02:52:20.534Z,95093.92
2018-10-01T02:54:46.034Z,95090.62
2018-10-01T02:57:11.525Z,95084.73
2018-10-01T02:59:37.023Z,95089.81
2018-10-01T03:02:02.523Z,95082.17
2018-10-01T03:04:28.007Z,95085.70
2018-10-01T03:06:53.496Z,95087.88
2018-10-01T03:09:18.976Z,95079.80
2018-10-01T03:11:44.463Z,95072.95
2018-10-01T03:14:09.933Z,95073.14
2018-10-01T03:16:35.437Z,95072.39
2018-10-01T03:19:00.905Z,95069.02
2018-10-01T03:21:26.503Z,95072.58
2018-10-01T03:23:51.918Z,95064.09
2018-10-01T03:26:17.410Z,95064.50
2018-10-01T03:28:42.877Z,95059.58
2018-10-01T03:31:08.372Z,95064.09
2018-10-01T03:33:33.872Z,95058.61
2018-10-01T03:35:59.348Z,95055.06
2018-10-01T03:38:24.818Z,95052.16
2018-10-01T03:40:50.305Z,95050.39
2018-10-01T03:43:15.800Z,95041.75
2018-10-01T03:45:41.269Z,95036.45
2018-10-01T03:48:06.757Z,95040.16
2018-10-01T03:50:32.263Z,95040.73
2018-10-01T03:52:57.733Z,95039.61
2018-10-01T03:55:23.237Z,95036.27
2018-10-01T03:57:48.706Z,95034.84
2018-10-01T04:00:14.174Z,95034.84
2018-10-01T04:02:39.693Z,95029.14
2018-10-01T04:05:05.196Z,95025.24
2018-10-01T04:07:30.681Z,95024.46
2018-10-01T04:09:56.196Z,95016.39
2018-10-01T04:12:21.687Z,95020.16
2018-10-01T04:14:47.197Z,95018.23
2018-10-01T04:17:12.691Z,95014.45
2018-10-01T04:19:38.166Z,95014.67
2018-10-01T04:22:03.676Z,95013.49
2018-10-01T04:24:29.218Z,95011.37
2018-10-01T04:26:54.707Z,95009.25
2018-10-01T04:29:20.246Z,95012.80
2018-10-01T04:31:45.714Z,95007.06
2018-10-01T04:34:11.274Z,95006.29
2018-10-01T04:36:36.810Z,95006.69
2018-10-01T04:39:02.299Z,95001.20
2018-10-01T04:41:27.815Z,94998.63
2018-10-01T04:43:53.541Z,94997.47
2018-10-01T04:46:19.023Z,94997.25
2018-10-01T04:48:44.531Z,94995.59
2018-10-01T04:51:10.016Z,94990.78
2018-10-01T04:53:35.669Z,94993.36
2018-10-01T04:56:01.287Z,94991.02
2018-10-01T04:58:26.913Z,94990.62
2018-10-01T05:00:52.273Z,94991.43
2018-10-01T05:03:17.749Z,94989.09
2018-10-01T05:05:43.244Z,94987.94
2018-10-01T05:08:08.738Z,94987.31
2018-10-01T05:10:34.231Z,94985.95
2018-10-01T05:12:59.705Z,94981.64
2018-10-01T05:15:25.198Z,94985.19
2018-10-01T05:17:50.710Z,94984.01
2018-10-01T05:20:16.217Z,94983.42
2018-10-01T05:22:41.708Z,94981.59
2018-10-01T05:25:07.185Z,94981.18
2018-10-01T05:27:32.679Z,94978.22
2018-10-01T05:29:58.174Z,94975.48
2018-10-01T05:32:23.647Z,94974.67
2018-10-01T05:34:49.134Z,94969.59
2018-10-01T05:37:14.608Z,94971.77
2018-10-01T05:39:40.090Z,94968.22
2018-10-01T05:42:05.559Z,94968.52
2018-10-01T05:44:31.029Z,94969.52
2018-10-01T05:46:56.562Z,94970.69
2018-10-01T05:49:22.069Z,94969.98
2018-10-01T05:51:47.561Z,94971.77
2018-10-01T05:54:13.069Z,94972.38
2018-10-01T05:56:38.549Z,94973.19
2018-10-01T05:59:04.043Z,94972.78
2018-10-01T06:01:29.551Z,94975.31
2018-10-01T06:03:55.029Z,94973.75
2018-10-01T06:06:20.695Z,94972.68
2018-10-01T06:08:46.194Z,94980.10
2018-10-01T06:11:11.702Z,94974.00
2018-10-01T06:13:37.211Z,94976.77
2018-10-01T06:16:02.727Z,94980.38
2018-10-01T06:18:28.234Z,94977.17
2018-10-01T06:20:53.732Z,94978.59
2018-10-01T06:23:19.356Z,94974.48
2018-10-01T06:25:44.888Z,94974.53
2018-10-01T06:28:10.384Z,94973.11
2018-10-01T06:30:35.911Z,94971.73
2018-10-01T06:33:01.467Z,94979.41
2018-10-01T06:35:26.964Z,94972.14
2018-10-01T06:37:52.495Z,94979.45
2018-10-01T06:40:17.976Z,94976.55
2018-10-01T06:42:43.874Z,94980.72
2018-10-01T06:45:09.346Z,94976.91
2018-10-01T06:47:34.887Z,94979.65
2018-10-01T06:50:00.402Z,94983.58
2018-10-01T06:52:26.709Z,94977.47
2018-10-01T06:54:52.513Z,94986.22
2018-10-01T06:57:18.321Z,94982.50
2018-10-01T06:59:44.740Z,94982.84
2018-10-01T07:02:14.658Z,94984.38
2018-10-01T07:04:41.464Z,94981.02
2018-10-01T07:07:07.590Z,94990.41
2018-10-01T07:09:33.270Z,94985.64
2018-10-01T07:11:58.745Z,94978.72
2018-10-01T07:14:24.250Z,94983.03
2018-10-01T07:16:49.779Z,94980.39
2018-10-01T07:19:15.806Z,94978.20
2018-10-01T07:21:41.317Z,94987.41
2018-10-01T07:24:06.824Z,94982.52
2018-10-01T07:26:32.294Z,94977.44
2018-10-01T07:28:57.765Z,94975.81
2018-10-01T07:31:23.263Z,94979.72
2018-10-01T07:33:49.495Z,94980.73
2018-10-01T07:36:14.964Z,94976.63
2018-10-01T07:38:40.692Z,94974.63
2018-10-01T07:41:07.608Z,94973.27
2018-10-01T07:43:33.140Z,94974.04
2018-10-01T07:45:59.207Z,94966.00
2018-10-01T07:48:24.640Z,94968.34
2018-10-01T07:50:50.314Z,94963.98
2018-10-01T07:53:16.101Z,94960.86
2018-10-01T07:55:41.600Z,94956.50
2018-10-01T07:58:07.406Z,94959.09
2018-10-01T08:00:32.916Z,94959.65
2018-10-01T08:02:58.453Z,94962.95
2018-10-01T08:05:23.954Z,94960.21
2018-10-01T08:07:49.425Z,94957.47
2018-10-01T08:10:14.923Z,94958.84
2018-10-01T08:12:40.391Z,94955.53
2018-10-01T08:15:05.897Z,94950.05
2018-10-01T08:17:31.677Z,94946.09
2018-10-01T08:19:57.188Z,94948.84
2018-10-01T08:22:22.698Z,94947.47
2018-10-01T08:24:48.181Z,94941.02
2018-10-01T08:27:13.686Z,94946.69
2018-10-01T08:29:39.308Z,94936.28
2018-10-01T08:32:04.684Z,94936.28
2018-10-01T08:34:30.194Z,94936.44
2018-10-01T08:36:55.689Z,94933.33
2018-10-01T08:39:21.181Z,94928.80
2018-10-01T08:41:46.683Z,94925.25
2018-10-01T08:44:12.204Z,94932.91
2018-10-01T08:46:37.673Z,94922.52
2018-10-01T08:49:03.175Z,94922.34
2018-10-01T08:51:28.639Z,94919.77
2018-10-01T08:53:54.109Z,94912.56
2018-10-01T08:56:19.642Z,94908.80
2018-10-01T08:58:45.087Z,94903.58
2018-10-01T09:01:10.566Z,94906.97
2018-10-01T09:03:36.070Z,94909.12
2018-10-01T09:06:01.569Z,94903.88
2018-10-01T09:08:27.191Z,94900.16
2018-10-01T09:10:52.561Z,94896.20
2018-10-01T09:13:18.067Z,94894.44
2018-10-01T09:15:43.567Z,94898.33
2018-10-01T09:18:09.045Z,94901.88
2018-10-01T09:20:34.564Z,94893.66
2018-10-01T09:23:00.017Z,94891.07
2018-10-01T09:25:25.522Z,94892.44
2018-10-01T09:27:50.994Z,94891.23
2018-10-01T09:30:16.473Z,94884.38
2018-10-01T09:32:41.973Z,94888.33
2018-10-01T09:35:07.484Z,94882.84
2018-10-01T09:37:32.921Z,94883.41
2018-10-01T09:39:58.411Z,94874.78
2018-10-01T09:42:23.891Z,94876.73
2018-10-01T09:44:49.362Z,94879.48
2018-10-01T09:47:14.863Z,94878.52
2018-10-01T09:49:40.329Z,94874.41
2018-10-01T09:52:05.842Z,94870.85
2018-10-01T09:54:31.302Z,94874.56
2018-10-01T09:56:56.781Z,94863.59
2018-10-01T09:59:22.252Z,94864.40
2018-10-01T10:01:47.735Z,94859.48
2018-10-01T10:04:13.310Z,94854.39
2018-10-01T10:06:38.756Z,94851.41
2018-10-01T10:09:04.268Z,94848.50
2018-10-01T10:11:29.798Z,94841.86
2018-10-01T10:13:55.230Z,94840.48
2018-10-01T10:16:20.875Z,94835.59
2018-10-01T10:18:46.155Z,94837.12
2018-10-01T10:21:11.631Z,94836.16
2018-10-01T10:23:37.099Z,94828.34
2018-10-01T10:26:02.639Z,94826.56
2018-10-01T10:28:28.116Z,94817.17
2018-10-01T10:30:53.579Z,94822.28
2018-10-01T10:33:19.087Z,94819.91
2018-10-01T10:35:44.579Z,94822.09
2018-10-01T10:38:10.152Z,94819.35
2018-10-01T10:40:35.577Z,94816.61
2018-10-01T10:43:01.170Z,94806.61
2018-10-01T10:45:26.656Z,94801.52
2018-10-01T10:47:52.195Z,94796.44
2018-10-01T10:50:18.438Z,94790.20
2018-10-01T10:52:43.824Z,94779.41
2018-10-01T10:55:09.320Z,94777.08
2018-10-01T10:57:39.718Z,94776.08
2018-10-01T11:00:03.437Z,94773.02
2018-10-01T11:02:28.932Z,94764.78
2018-10-01T11:04:54.371Z,94766.72
2018-10-01T11:07:19.914Z,94750.27
2018-10-01T11:09:45.333Z,94755.55
2018-10-01T11:12:10.832Z,94749.10
2018-10-01T11:14:36.357Z,94749.34
2018-10-01T11:17:01.792Z,94742.89
2018-10-01T11:19:27.334Z,94739.91
2018-10-01T11:21:52.812Z,94738.94
2018-10-01T11:24:18.338Z,94732.13
2018-10-01T11:26:43.885Z,94728.02
2018-10-01T11:29:09.348Z,94728.22
2018-10-01T11:31:34.818Z,94732.74
2018-10-01T11:34:00.248Z,94737.83
2018-10-01T11:36:25.750Z,94727.66
2018-10-01T11:38:51.255Z,94734.92
2018-10-01T11:41:16.809Z,94724.75
2018-10-01T11:43:42.309Z,94719.43
2018-10-01T11:46:07.780Z,94721.61
2018-10-01T11:48:33.255Z,94725.72
2018-10-01T11:50:58.728Z,94714.75
2018-10-01T11:53:24.213Z,94714.19
2018-10-01T11:55:49.683Z,94709.66
2018-10-01T11:58:15.174Z,94709.27
2018-10-01T12:00:40.671Z,94712.77
2018-10-01T12:03:06.214Z,94711.39
2018-10-01T12:05:31.681Z,94708.65
2018-10-01T12:07:57.172Z,94706.28
2018-10-01T12:10:22.721Z,94712.17
2018-10-01T12:12:48.132Z,94713.89
2018-10-01T12:15:13.709Z,94706.88
2018-10-01T12:17:39.221Z,94706.47
2018-10-01T12:20:04.716Z,94703.48
2018-10-01T12:22:30.188Z,94702.52
2018-10-01T12:24:55.656Z,94696.63
2018-10-01T12:27:21.167Z,94692.52
2018-10-01T12:29:46.624Z,94685.66
2018-10-01T12:32:12.236Z,94683.31
2018-10-01T12:34:37.592Z,94685.09
2018-10-01T12:37:03.069Z,94681.54
2018-10-01T12:39:28.591Z,94681.54
2018-10-01T12:41:54.083Z,94679.39
2018-10-01T12:44:19.592Z,94679.95
2018-10-01T12:46:45.061Z,94683.91
2018-10-01T12:49:10.549Z,94669.20
2018-10-01T12:51:36.090Z,94665.53
2018-10-01T12:54:01.570Z,94675.13
2018-10-01T12:56:27.028Z,94673.03
2018-10-01T12:58:52.497Z,94668.67
2018-10-01T13:01:18.011Z,94669.03
2018-10-01T13:03:43.539Z,94669.44
2018-10-01T13:06:09.055Z,94663.38
2018-10-01T13:08:34.471Z,94663.59
2018-10-01T13:10:59.965Z,94655.93
2018-10-01T13:13:25.436Z,94657.90
2018-10-01T13:15:50.933Z,94646.73
2018-10-01T13:18:16.511Z,94651.66
2018-10-01T13:20:41.897Z,94646.56
2018-10-01T13:23:07.416Z,94640.33
2018-10-01T13:25:32.932Z,94642.66
2018-10-01T13:27:58.406Z,94643.06
2018-10-01T13:30:24.026Z,94648.34
2018-10-01T13:32:49.397Z,94637.53
2018-10-01T13:35:14.863Z,94636.16
2018-10-01T13:37:40.359Z,94642.86
2018-10-01T13:40:05.831Z,94633.02
2018-10-01T13:42:31.351Z,94635.15
2018-10-01T13:44:56.834Z,94628.91
2018-10-01T13:47:22.305Z,94639.31
2018-10-01T13:49:47.799Z,94633.47
2018-10-01T13:52:13.364Z,94628.55
2018-10-01T13:54:38.923Z,94628.95
2018-10-01T13:57:04.417Z,94634.67
2018-10-01T13:59:29.917Z,94630.93
2018-10-01T14:01:55.434Z,94628.78
2018-10-01T14:04:20.923Z,94627.02
2018-10-01T14:06:46.430Z,94622.70
2018-10-01T14:09:11.908Z,94620.72
2018-10-01T14:11:37.387Z,94627.17
2018-10-01T14:14:02.940Z,94624.03
2018-10-01T14:16:28.414Z,94623.25
2018-10-01T14:18:54.140Z,94623.46
2018-10-01T14:21:19.655Z,94625.80
2018-10-01T14:23:45.131Z,94627.17
2018-10-01T14:26:10.637Z,94624.83
2018-10-01T14:28:36.144Z,94631.69
2018-10-01T14:31:01.731Z,94628.19
2018-10-01T14:33:27.102Z,94633.06
2018-10-01T14:35:52.594Z,94633.11
2018-10-01T14:38:18.102Z,94628.55
2018-10-01T14:40:43.575Z,94633.06
2018-10-01T14:43:09.198Z,94628.95
2018-10-01T14:45:34.567Z,94632.09
2018-10-01T14:48:00.122Z,94629.92
2018-10-01T14:50:25.543Z,94631.53
2018-10-01T14:52:51.077Z,94636.61
2018-10-01T14:55:16.582Z,94631.12
2018-10-01T14:57:42.088Z,94634.67
2018-10-01T15:00:07.588Z,94634.84
2018-10-01T15:02:33.056Z,94629.75
2018-10-01T15:04:58.535Z,94626.25
2018-10-01T15:07:28.216Z,94621.33
2018-10-01T15:09:53.757Z,94620.95
2018-10-01T15:12:19.254Z,94609.58
2018-10-01T15:14:44.815Z,94611.00
2018-10-01T15:17:10.293Z,94607.61
2018-10-01T15:19:35.806Z,94608.98
2018-10-01T15:22:01.281Z,94607.28
2018-10-01T15:24:26.765Z,94612.02
2018-10-01T15:26:52.267Z,94616.29
2018-10-01T15:29:17.772Z,94624.00
2018-10-01T15:31:43.287Z,94629.48
2018-10-01T15:34:08.784Z,94630.45
2018-10-01T15:36:36.628Z,94630.09
2018-10-01T15:39:02.043Z,94624.28
2018-10-01T15:41:27.558Z,94622.27
2018-10-01T15:43:53.024Z,94626.58
2018-10-01T15:46:18.524Z,94629.84
2018-10-01T15:48:44.023Z,94634.72
2018-10-01T15:51:09.560Z,94632.70
2018-10-01T15:53:35.013Z,94633.67
2018-10-01T15:56:00.576Z,94633.11
2018-10-01T15:58:25.982Z,94635.89
2018-10-01T16:00:51.454Z,94632.75
2018-10-01T16:03:17.022Z,94636.54
2018-10-01T16:05:42.453Z,94639.66
2018-10-01T16:08:07.931Z,94637.11
2018-10-01T16:10:33.444Z,94638.23
2018-10-01T16:12:58.929Z,94639.40
2018-10-01T16:15:24.455Z,94647.84
2018-10-01T16:17:49.961Z,94654.70
2018-10-01T16:20:15.454Z,94655.70
2018-10-01T16:22:40.933Z,94657.84
2018-10-01T16:25:06.427Z,94651.39
2018-10-01T16:27:31.933Z,94660.56
2018-10-01T16:29:57.420Z,94661.28
2018-10-01T16:32:22.915Z,94666.61
2018-10-01T16:34:48.429Z,94663.30
2018-10-01T16:37:13.932Z,94666.57
2018-10-01T16:39:39.444Z,94671.89
2018-10-01T16:42:08.014Z,94673.67
2018-10-01T16:44:33.709Z,94679.77
2018-10-01T16:47:01.415Z,94679.88
2018-10-01T16:49:26.912Z,94684.15
2018-10-01T16:51:52.407Z,94689.23
2018-10-01T16:54:17.881Z,94690.60
2018-10-01T16:56:43.352Z,94698.59
2018-10-01T16:59:08.856Z,94694.72
2018-10-01T17:01:34.351Z,94701.93
2018-10-01T17:03:59.828Z,94702.90
2018-10-01T17:06:25.311Z,94705.45
2018-10-01T17:08:50.803Z,94702.50
2018-10-01T17:11:16.293Z,94710.20
2018-10-01T17:13:41.844Z,94707.27
2018-10-01T17:16:07.315Z,94710.82
2018-10-01T17:18:32.808Z,94714.94
2018-10-01T17:21:04.659Z,94716.66
2018-10-01T17:23:30.136Z,94728.49
2018-10-01T17:25:55.638Z,94737.14
2018-10-01T17:28:21.144Z,94738.66
2018-10-01T17:30:46.632Z,94747.34
2018-10-01T17:33:12.128Z,94748.72
2018-10-01T17:35:38.096Z,94752.99
2018-10-01T17:38:03.573Z,94756.09
2018-10-01T17:40:29.077Z,94756.25
2018-10-01T17:42:54.557Z,94761.37
2018-10-01T17:45:20.040Z,94762.34
2018-10-01T17:47:45.628Z,94766.97
2018-10-01T17:50:11.128Z,94772.45
2018-10-01T17:52:37.616Z,94768.50
2018-10-01T17:55:03.115Z,94771.24
2018-10-01T17:57:28.607Z,94768.91
2018-10-01T17:59:54.123Z,94771.03
2018-10-01T18:02:22.208Z,94767.72
2018-10-01T18:04:52.972Z,94772.81
2018-10-01T18:07:18.442Z,94772.41
2018-10-01T18:09:44.062Z,94770.02
2018-10-01T18:12:09.568Z,94772.00
2018-10-01T18:14:35.051Z,94779.06
2018-10-01T18:17:00.536Z,94781.94
2018-10-01T18:19:26.045Z,94780.99
2018-10-01T18:21:51.537Z,94784.28
2018-10-01T18:24:17.011Z,94786.63
2018-10-01T18:26:42.472Z,94785.25
2018-10-01T18:29:07.971Z,94784.90
2018-10-01T18:31:35.266Z,94785.11
2018-10-01T18:34:00.746Z,94786.31
2018-10-01T18:36:26.240Z,94794.34
2018-10-01T18:38:52.732Z,94790.79
2018-10-01T18:41:18.175Z,94793.29
2018-10-01T18:43:43.734Z,94798.16
2018-10-01T18:46:09.403Z,94806.18
2018-10-01T18:48:34.888Z,94809.89
2018-10-01T18:51:00.362Z,94805.78
2018-10-01T18:53:26.314Z,94803.03
2018-10-01T18:55:51.815Z,94811.83
2018-10-01T18:58:17.311Z,94806.75
2018-10-01T19:00:42.825Z,94813.60
2018-10-01T19:03:08.293Z,94810.25
2018-10-01T19:05:34.255Z,94817.31
2018-10-01T19:07:59.726Z,94823.42
2018-10-01T19:10:25.493Z,94824.73
2018-10-01T19:12:50.845Z,94830.63
2018-10-01T19:15:16.360Z,94817.88
2018-10-01T19:17:41.806Z,94821.59
2018-10-01T19:20:07.272Z,94820.06
2018-10-01T19:22:32.749Z,94826.92
2018-10-01T19:24:58.229Z,94835.31
2018-10-01T19:27:23.821Z,94833.56
2018-10-01T19:29:49.237Z,94829.05
2018-10-01T19:32:14.709Z,94833.94
2018-10-01T19:34:40.307Z,94832.56
2018-10-01T19:37:05.691Z,94830.23
2018-10-01T19:39:31.146Z,94833.16
2018-10-01T19:41:56.686Z,94830.02
2018-10-01T19:44:22.206Z,94832.76
2018-10-01T19:46:47.757Z,94836.68
2018-10-01T19:49:13.162Z,94833.16
2018-10-01T19:51:38.650Z,94832.19
2018-10-01T19:54:04.148Z,94834.13
2018-10-01T19:56:29.655Z,94840.80
2018-10-01T19:58:55.174Z,94840.18
2018-10-01T20:01:20.613Z,94842.36
2018-10-01T20:03:46.085Z,94847.60
2018-10-01T20:06:11.579Z,94848.01
2018-10-01T20:08:37.071Z,94842.92
2018-10-01T20:11:02.683Z,94837.84
2018-10-01T20:13:28.059Z,94840.37
2018-10-01T20:15:53.632Z,94846.23
2018-10-01T20:18:19.039Z,94853.34
2018-10-01T20:20:44.871Z,94849.17
2018-10-01T20:23:10.341Z,94850.75
2018-10-01T20:25:35.840Z,94850.34
2018-10-01T20:28:01.385Z,94852.93
2018-10-01T20:30:26.813Z,94853.90
2018-10-01T20:32:52.290Z,94853.34
2018-10-01T20:35:17.853Z,94855.46
2018-10-01T20:37:43.325Z,94855.27
2018-10-01T20:40:08.762Z,94849.97
2018-10-01T20:42:34.236Z,94852.12
2018-10-01T20:44:59.735Z,94848.98
2018-10-01T20:47:25.314Z,94849.37
2018-10-01T20:49:50.767Z,94849.37
2018-10-01T20:52:16.252Z,94853.28
2018-10-01T20:54:41.683Z,94861.91
2018-10-01T20:57:07.190Z,94857.80
2018-10-01T20:59:32.662Z,94853.49
2018-10-01T21:01:58.130Z,94862.69
2018-10-01T21:04:23.604Z,94867.05
2018-10-01T21:06:49.115Z,94870.92
2018-10-01T21:09:14.606Z,94876.81
2018-10-01T21:11:40.083Z,94878.37
2018-10-01T21:14:05.641Z,94881.73
2018-10-01T21:16:31.090Z,94883.27
2018-10-01T21:18:56.641Z,94883.11
2018-10-01T21:21:22.118Z,94883.67
2018-10-01T21:23:47.618Z,94885.23
2018-10-01T21:26:13.117Z,94880.52
2018-10-01T21:28:38.616Z,94879.91
2018-10-01T21:31:04.080Z,94885.80
2018-10-01T21:33:29.574Z,94883.05
2018-10-01T21:35:55.069Z,94884.99
2018-10-01T21:38:20.536Z,94882.65
2018-10-01T21:40:46.037Z,94886.20
2018-10-01T21:43:11.529Z,94877.57
2018-10-01T21:45:37.026Z,94882.09
2018-10-01T21:48:02.519Z,94879.75
2018-10-01T21:50:28.014Z,94884.83
2018-10-01T21:52:53.518Z,94888.38
2018-10-01T21:55:19.011Z,94887.17
2018-10-01T21:57:44.476Z,94893.06
2018-10-01T22:00:09.948Z,94888.54
2018-10-01T22:02:35.411Z,94890.88
2018-10-01T22:05:00.902Z,94893.06
2018-10-01T22:07:26.381Z,94900.08
2018-10-01T22:09:51.854Z,94899.92
2018-10-01T22:12:17.346Z,94894.84
2018-10-01T22:14:42.838Z,94897.73
2018-10-01T22:17:08.333Z,94896.20
2018-10-01T22:19:33.866Z,94896.77
2018-10-01T22:21:59.359Z,94904.44
2018-10-01T22:24:24.845Z,94900.89
2018-10-01T22:26:50.315Z,94898.95
2018-10-01T22:29:15.805Z,94897.73
2018-10-01T22:31:41.281Z,94901.86
2018-10-01T22:34:06.749Z,94900.33
2018-10-01T22:36:32.242Z,94900.89
2018-10-01T22:38:57.738Z,94903.23
2018-10-01T22:41:23.231Z,94912.67
2018-10-01T22:43:48.704Z,94905.81
2018-10-01T22:46:14.172Z,94915.41
2018-10-01T22:48:39.652Z,94915.41
2018-10-01T22:51:05.124Z,94921.46
2018-10-01T22:53:30.599Z,94927.75
2018-10-01T22:55:56.070Z,94931.27
2018-10-01T22:58:21.543Z,94936.95
2018-10-01T23:00:47.036Z,94933.00
2018-10-01T23:03:12.597Z,94943.25
2018-10-01T23:05:38.094Z,94950.27
2018-10-01T23:08:03.593Z,94939.30
2018-10-01T23:10:29.060Z,94943.41
2018-10-01T23:12:54.568Z,94946.55
2018-10-01T23:15:20.057Z,94945.19
2018-10-01T23:17:45.533Z,94944.22
2018-10-01T23:20:11.002Z,94943.00
2018-10-01T23:22:36.477Z,94937.36
2018-10-01T23:25:01.970Z,94934.77
2018-10-01T23:27:27.436Z,94936.14
2018-10-01T23:29:52.905Z,94935.58
2018-10-01T23:32:18.421Z,94947.13
2018-10-01T23:34:43.870Z,94936.71
2018-10-01T23:37:09.337Z,94941.82
2018-10-01T23:39:34.804Z,94943.00
2018-10-01T23:42:00.267Z,94946.16
2018-10-01T23:44:25.759Z,94943.97
2018-10-01T23:46:51.227Z,94942.60
2018-10-01T23:49:16.719Z,94944.94
2018-10-01T23:51:42.219Z,94947.69
2018-10-01T23:54:07.714Z,94948.48
2018-10-01T23:56:33.214Z,94955.91
2018-10-01T23:58:58.683Z,94964.80
